Terminal Aerodrome Forecast
Issued by NWS

Home | Current Version | Previous Version | Text Only | Print | Product List | Glossary On
Versions: 1 2 3 4 5 6 7 8 9 10 11 12 13 14
830
FTUS45 KTFX 301737
TAFBZN
TAF
KBZN 301737Z 3018/3118 31015KT P6SM VCSH SCT035
     FM302300 31010KT P6SM FEW035
     FM310100 VRB05KT P6SM SKC
     FM311200 VRB05KT P6SM SCT030=

USA.gov is the U.S. government's official web portal to all federal, state and local government web resources and services.